sensor_id;sensor_type;location;lat;lon;timestamp;P1;durP1;ratioP1;P2;durP2;ratioP2
20637;SDS011;10478;49.004;8.470;2023-09-18T00:02:04;2.83;;;1.58;;
20637;SDS011;10478;49.004;8.470;2023-09-18T00:04:29;1.88;;;1.40;;
20637;SDS011;10478;49.004;8.470;2023-09-18T00:06:54;4.78;;;2.17;;
20637;SDS011;10478;49.004;8.470;2023-09-18T00:09:20;1.75;;;1.38;;
20637;SDS011;10478;49.004;8.470;2023-09-18T00:11:45;2.42;;;1.40;;
20637;SDS011;10478;49.004;8.470;2023-09-18T00:14:10;2.45;;;1.30;;
20637;SDS011;10478;49.004;8.470;2023-09-18T00:16:36;6.35;;;2.00;;
20637;SDS011;10478;49.004;8.470;2023-09-18T00:19:01;4.43;;;1.40;;
20637;SDS011;10478;49.004;8.470;2023-09-18T00:21:27;3.58;;;1.50;;
20637;SDS011;10478;49.004;8.470;2023-09-18T00:23:55;2.50;;;1.33;;
20637;SDS011;10478;49.004;8.470;2023-09-18T00:26:21;4.07;;;1.85;;
20637;SDS011;10478;49.004;8.470;2023-09-18T00:28:46;2.53;;;1.55;;
20637;SDS011;10478;49.004;8.470;2023-09-18T00:31:12;2.63;;;1.80;;
20637;SDS011;10478;49.004;8.470;2023-09-18T00:33:37;6.10;;;1.58;;
20637;SDS011;10478;49.004;8.470;2023-09-18T00:36:03;5.82;;;1.77;;
20637;SDS011;10478;49.004;8.470;2023-09-18T00:38:29;3.28;;;1.63;;
20637;SDS011;10478;49.004;8.470;2023-09-18T00:40:54;2.78;;;1.63;;
20637;SDS011;10478;49.004;8.470;2023-09-18T00:43:19;2.35;;;1.60;;
20637;SDS011;10478;49.004;8.470;2023-09-18T00:45:46;2.58;;;1.92;;
20637;SDS011;10478;49.004;8.470;2023-09-18T00:48:12;6.13;;;1.58;;
20637;SDS011;10478;49.004;8.470;2023-09-18T00:50:37;5.93;;;1.73;;
20637;SDS011;10478;49.004;8.470;2023-09-18T00:53:03;3.35;;;1.88;;
20637;SDS011;10478;49.004;8.470;2023-09-18T00:55:29;5.07;;;1.52;;
20637;SDS011;10478;49.004;8.470;2023-09-18T00:57:55;3.38;;;1.75;;
20637;SDS011;10478;49.004;8.470;2023-09-18T01:00:20;4.00;;;1.83;;
20637;SDS011;10478;49.004;8.470;2023-09-18T01:02:47;5.18;;;1.67;;
20637;SDS011;10478;49.004;8.470;2023-09-18T01:05:12;4.22;;;1.92;;
20637;SDS011;10478;49.004;8.470;2023-09-18T01:07:38;4.05;;;1.90;;
20637;SDS011;10478;49.004;8.470;2023-09-18T01:10:04;3.70;;;2.28;;
20637;SDS011;10478;49.004;8.470;2023-09-18T01:17:38;4.55;;;1.58;;
20637;SDS011;10478;49.004;8.470;2023-09-18T01:20:04;3.33;;;1.77;;
20637;SDS011;10478;49.004;8.470;2023-09-18T01:22:30;2.13;;;1.48;;
20637;SDS011;10478;49.004;8.470;2023-09-18T01:24:57;6.28;;;1.70;;
20637;SDS011;10478;49.004;8.470;2023-09-18T01:27:22;3.63;;;2.03;;
20637;SDS011;10478;49.004;8.470;2023-09-18T01:29:48;4.03;;;2.03;;
20637;SDS011;10478;49.004;8.470;2023-09-18T01:32:14;2.50;;;1.75;;
20637;SDS011;10478;49.004;8.470;2023-09-18T01:34:47;2.30;;;1.83;;
20637;SDS011;10478;49.004;8.470;2023-09-18T01:37:16;5.43;;;1.95;;
20637;SDS011;10478;49.004;8.470;2023-09-18T01:39:43;5.20;;;1.95;;
20637;SDS011;10478;49.004;8.470;2023-09-18T01:42:09;5.30;;;2.28;;
20637;SDS011;10478;49.004;8.470;2023-09-18T01:44:35;3.95;;;1.73;;
20637;SDS011;10478;49.004;8.470;2023-09-18T01:47:03;5.97;;;2.05;;
20637;SDS011;10478;49.004;8.470;2023-09-18T01:49:30;4.07;;;2.03;;
20637;SDS011;10478;49.004;8.470;2023-09-18T01:51:57;2.70;;;1.80;;
20637;SDS011;10478;49.004;8.470;2023-09-18T01:54:22;2.75;;;1.65;;
20637;SDS011;10478;49.004;8.470;2023-09-18T01:56:48;3.13;;;1.67;;
20637;SDS011;10478;49.004;8.470;2023-09-18T01:59:13;4.95;;;2.10;;
20637;SDS011;10478;49.004;8.470;2023-09-18T02:01:39;2.95;;;1.30;;
20637;SDS011;10478;49.004;8.470;2023-09-18T02:04:04;4.20;;;1.70;;
20637;SDS011;10478;49.004;8.470;2023-09-18T02:06:30;3.22;;;1.65;;
20637;SDS011;10478;49.004;8.470;2023-09-18T02:08:55;4.30;;;1.80;;
20637;SDS011;10478;49.004;8.470;2023-09-18T02:11:20;5.75;;;1.77;;
20637;SDS011;10478;49.004;8.470;2023-09-18T02:13:46;3.90;;;2.10;;
20637;SDS011;10478;49.004;8.470;2023-09-18T02:16:11;7.35;;;2.20;;
20637;SDS011;10478;49.004;8.470;2023-09-18T02:18:36;3.30;;;2.40;;
20637;SDS011;10478;49.004;8.470;2023-09-18T02:21:02;4.05;;;1.73;;
20637;SDS011;10478;49.004;8.470;2023-09-18T02:23:27;6.50;;;2.33;;
20637;SDS011;10478;49.004;8.470;2023-09-18T02:25:56;8.52;;;1.83;;
20637;SDS011;10478;49.004;8.470;2023-09-18T02:28:22;3.70;;;1.98;;
20637;SDS011;10478;49.004;8.470;2023-09-18T02:30:47;2.90;;;1.90;;
20637;SDS011;10478;49.004;8.470;2023-09-18T02:33:13;6.13;;;1.88;;
20637;SDS011;10478;49.004;8.470;2023-09-18T02:35:38;4.63;;;1.95;;
20637;SDS011;10478;49.004;8.470;2023-09-18T02:38:03;3.72;;;1.88;;
20637;SDS011;10478;49.004;8.470;2023-09-18T02:40:28;5.70;;;1.98;;
20637;SDS011;10478;49.004;8.470;2023-09-18T02:42:54;3.95;;;1.95;;
20637;SDS011;10478;49.004;8.470;2023-09-18T02:45:19;2.75;;;1.80;;
20637;SDS011;10478;49.004;8.470;2023-09-18T02:47:44;7.18;;;2.30;;
20637;SDS011;10478;49.004;8.470;2023-09-18T02:50:10;3.72;;;1.55;;
20637;SDS011;10478;49.004;8.470;2023-09-18T02:52:36;3.30;;;2.40;;
20637;SDS011;10478;49.004;8.470;2023-09-18T02:55:02;4.93;;;1.95;;
20637;SDS011;10478;49.004;8.470;2023-09-18T02:57:28;3.20;;;1.90;;
20637;SDS011;10478;49.004;8.470;2023-09-18T02:59:53;3.70;;;2.00;;
20637;SDS011;10478;49.004;8.470;2023-09-18T03:02:18;3.85;;;2.60;;
20637;SDS011;10478;49.004;8.470;2023-09-18T03:04:43;4.85;;;2.20;;
20637;SDS011;10478;49.004;8.470;2023-09-18T03:07:09;4.45;;;1.77;;
20637;SDS011;10478;49.004;8.470;2023-09-18T03:09:34;5.07;;;2.15;;
20637;SDS011;10478;49.004;8.470;2023-09-18T03:12:00;8.88;;;2.13;;
20637;SDS011;10478;49.004;8.470;2023-09-18T03:14:25;3.65;;;2.13;;
20637;SDS011;10478;49.004;8.470;2023-09-18T03:16:51;5.30;;;1.75;;
20637;SDS011;10478;49.004;8.470;2023-09-18T03:19:16;5.10;;;2.00;;
20637;SDS011;10478;49.004;8.470;2023-09-18T03:21:41;5.00;;;2.63;;
20637;SDS011;10478;49.004;8.470;2023-09-18T03:24:07;6.75;;;2.35;;
20637;SDS011;10478;49.004;8.470;2023-09-18T03:26:32;9.55;;;2.35;;
20637;SDS011;10478;49.004;8.470;2023-09-18T03:28:57;11.25;;;2.53;;
20637;SDS011;10478;49.004;8.470;2023-09-18T03:31:22;3.70;;;2.30;;
20637;SDS011;10478;49.004;8.470;2023-09-18T03:33:48;5.10;;;2.33;;
20637;SDS011;10478;49.004;8.470;2023-09-18T03:36:13;4.90;;;1.98;;
20637;SDS011;10478;49.004;8.470;2023-09-18T03:38:39;17.42;;;2.75;;
20637;SDS011;10478;49.004;8.470;2023-09-18T03:41:05;5.72;;;2.17;;
20637;SDS011;10478;49.004;8.470;2023-09-18T03:43:30;3.63;;;2.05;;
20637;SDS011;10478;49.004;8.470;2023-09-18T03:46:02;7.95;;;2.45;;
20637;SDS011;10478;49.004;8.470;2023-09-18T03:48:28;9.00;;;2.40;;
20637;SDS011;10478;49.004;8.470;2023-09-18T03:50:56;7.72;;;1.90;;
20637;SDS011;10478;49.004;8.470;2023-09-18T03:53:21;6.40;;;2.20;;
20637;SDS011;10478;49.004;8.470;2023-09-18T03:55:47;8.20;;;2.70;;
20637;SDS011;10478;49.004;8.470;2023-09-18T03:58:13;6.25;;;2.17;;
20637;SDS011;10478;49.004;8.470;2023-09-18T04:00:38;8.77;;;2.30;;
20637;SDS011;10478;49.004;8.470;2023-09-18T04:03:03;9.05;;;2.58;;
20637;SDS011;10478;49.004;8.470;2023-09-18T04:05:29;2.95;;;1.42;;
20637;SDS011;10478;49.004;8.470;2023-09-18T04:07:54;4.32;;;2.20;;
20637;SDS011;10478;49.004;8.470;2023-09-18T04:10:19;7.38;;;1.85;;
20637;SDS011;10478;49.004;8.470;2023-09-18T04:12:47;5.28;;;2.30;;
20637;SDS011;10478;49.004;8.470;2023-09-18T04:15:15;7.53;;;3.03;;
20637;SDS011;10478;49.004;8.470;2023-09-18T04:17:42;7.22;;;3.30;;
20637;SDS011;10478;49.004;8.470;2023-09-18T04:20:07;8.90;;;3.83;;
20637;SDS011;10478;49.004;8.470;2023-09-18T04:22:33;9.95;;;4.90;;
20637;SDS011;10478;49.004;8.470;2023-09-18T04:24:59;6.72;;;3.10;;
20637;SDS011;10478;49.004;8.470;2023-09-18T04:27:24;8.88;;;3.22;;
20637;SDS011;10478;49.004;8.470;2023-09-18T04:29:49;9.45;;;4.25;;
20637;SDS011;10478;49.004;8.470;2023-09-18T04:32:15;9.32;;;5.03;;
20637;SDS011;10478;49.004;8.470;2023-09-18T04:34:40;20.65;;;9.57;;
20637;SDS011;10478;49.004;8.470;2023-09-18T04:37:07;18.52;;;9.40;;
20637;SDS011;10478;49.004;8.470;2023-09-18T04:39:32;28.50;;;17.17;;
20637;SDS011;10478;49.004;8.470;2023-09-18T04:41:59;25.80;;;12.43;;
20637;SDS011;10478;49.004;8.470;2023-09-18T04:44:26;29.70;;;13.18;;
20637;SDS011;10478;49.004;8.470;2023-09-18T04:46:51;18.33;;;8.45;;
20637;SDS011;10478;49.004;8.470;2023-09-18T04:49:17;7.28;;;3.15;;
20637;SDS011;10478;49.004;8.470;2023-09-18T04:51:42;18.33;;;3.67;;
20637;SDS011;10478;49.004;8.470;2023-09-18T04:54:08;11.15;;;2.90;;
20637;SDS011;10478;49.004;8.470;2023-09-18T04:56:34;8.20;;;3.40;;
20637;SDS011;10478;49.004;8.470;2023-09-18T04:58:59;12.60;;;2.38;;
20637;SDS011;10478;49.004;8.470;2023-09-18T05:01:24;7.03;;;1.70;;
20637;SDS011;10478;49.004;8.470;2023-09-18T05:03:50;12.43;;;2.53;;
20637;SDS011;10478;49.004;8.470;2023-09-18T05:06:16;5.40;;;1.98;;
20637;SDS011;10478;49.004;8.470;2023-09-18T05:08:42;12.13;;;2.80;;
20637;SDS011;10478;49.004;8.470;2023-09-18T05:11:08;4.10;;;1.92;;
20637;SDS011;10478;49.004;8.470;2023-09-18T05:13:33;8.30;;;1.83;;
20637;SDS011;10478;49.004;8.470;2023-09-18T05:15:59;11.52;;;2.08;;
20637;SDS011;10478;49.004;8.470;2023-09-18T05:18:25;6.05;;;2.03;;
20637;SDS011;10478;49.004;8.470;2023-09-18T05:20:51;6.78;;;1.60;;
20637;SDS011;10478;49.004;8.470;2023-09-18T05:23:16;7.15;;;1.88;;
20637;SDS011;10478;49.004;8.470;2023-09-18T05:25:42;8.15;;;1.92;;
20637;SDS011;10478;49.004;8.470;2023-09-18T05:28:09;7.72;;;1.58;;
20637;SDS011;10478;49.004;8.470;2023-09-18T05:30:35;8.63;;;1.80;;
20637;SDS011;10478;49.004;8.470;2023-09-18T05:33:03;17.88;;;8.48;;
20637;SDS011;10478;49.004;8.470;2023-09-18T05:35:51;20.58;;;10.38;;
20637;SDS011;10478;49.004;8.470;2023-09-18T05:38:16;11.25;;;2.33;;
20637;SDS011;10478;49.004;8.470;2023-09-18T05:40:42;9.23;;;2.60;;
20637;SDS011;10478;49.004;8.470;2023-09-18T05:43:09;5.85;;;2.10;;
20637;SDS011;10478;49.004;8.470;2023-09-18T05:45:35;4.70;;;1.80;;
20637;SDS011;10478;49.004;8.470;2023-09-18T05:48:00;5.22;;;2.10;;
20637;SDS011;10478;49.004;8.470;2023-09-18T05:50:29;4.22;;;2.05;;
20637;SDS011;10478;49.004;8.470;2023-09-18T05:52:56;7.28;;;1.83;;
20637;SDS011;10478;49.004;8.470;2023-09-18T05:55:25;6.22;;;1.75;;
20637;SDS011;10478;49.004;8.470;2023-09-18T05:57:52;4.90;;;1.52;;
20637;SDS011;10478;49.004;8.470;2023-09-18T06:00:18;8.90;;;1.98;;
20637;SDS011;10478;49.004;8.470;2023-09-18T06:02:43;6.05;;;1.50;;
20637;SDS011;10478;49.004;8.470;2023-09-18T06:05:10;6.82;;;1.95;;
20637;SDS011;10478;49.004;8.470;2023-09-18T06:07:40;5.20;;;1.30;;
20637;SDS011;10478;49.004;8.470;2023-09-18T06:10:06;7.25;;;2.20;;
20637;SDS011;10478;49.004;8.470;2023-09-18T06:12:31;10.35;;;2.10;;
20637;SDS011;10478;49.004;8.470;2023-09-18T06:14:57;9.30;;;1.95;;
20637;SDS011;10478;49.004;8.470;2023-09-18T06:17:22;11.00;;;2.10;;
20637;SDS011;10478;49.004;8.470;2023-09-18T06:19:47;4.88;;;1.70;;
20637;SDS011;10478;49.004;8.470;2023-09-18T06:22:13;5.18;;;1.95;;
20637;SDS011;10478;49.004;8.470;2023-09-18T06:24:39;4.65;;;1.98;;
20637;SDS011;10478;49.004;8.470;2023-09-18T06:27:04;5.90;;;1.85;;
20637;SDS011;10478;49.004;8.470;2023-09-18T06:29:30;10.23;;;2.30;;
20637;SDS011;10478;49.004;8.470;2023-09-18T06:31:56;8.40;;;2.58;;
20637;SDS011;10478;49.004;8.470;2023-09-18T06:34:21;5.38;;;1.73;;
20637;SDS011;10478;49.004;8.470;2023-09-18T06:36:46;4.10;;;1.38;;
20637;SDS011;10478;49.004;8.470;2023-09-18T06:39:12;9.13;;;2.40;;
20637;SDS011;10478;49.004;8.470;2023-09-18T06:41:37;11.40;;;2.20;;
20637;SDS011;10478;49.004;8.470;2023-09-18T06:44:02;5.55;;;1.80;;
20637;SDS011;10478;49.004;8.470;2023-09-18T06:46:29;7.20;;;1.83;;
20637;SDS011;10478;49.004;8.470;2023-09-18T06:48:54;4.97;;;1.80;;
20637;SDS011;10478;49.004;8.470;2023-09-18T06:51:21;6.30;;;1.92;;
20637;SDS011;10478;49.004;8.470;2023-09-18T06:53:46;6.28;;;1.83;;
20637;SDS011;10478;49.004;8.470;2023-09-18T06:56:12;7.57;;;2.22;;
20637;SDS011;10478;49.004;8.470;2023-09-18T06:58:37;4.97;;;2.65;;
20637;SDS011;10478;49.004;8.470;2023-09-18T07:01:03;8.45;;;2.08;;
20637;SDS011;10478;49.004;8.470;2023-09-18T07:03:31;5.57;;;1.50;;
20637;SDS011;10478;49.004;8.470;2023-09-18T07:05:58;3.90;;;2.05;;
20637;SDS011;10478;49.004;8.470;2023-09-18T07:08:23;5.88;;;2.28;;
20637;SDS011;10478;49.004;8.470;2023-09-18T07:10:51;7.22;;;2.47;;
20637;SDS011;10478;49.004;8.470;2023-09-18T07:13:17;6.65;;;2.17;;
20637;SDS011;10478;49.004;8.470;2023-09-18T07:15:42;3.72;;;1.75;;
20637;SDS011;10478;49.004;8.470;2023-09-18T07:18:09;3.40;;;1.92;;
20637;SDS011;10478;49.004;8.470;2023-09-18T07:20:39;3.80;;;1.88;;
20637;SDS011;10478;49.004;8.470;2023-09-18T07:23:05;7.75;;;2.00;;
20637;SDS011;10478;49.004;8.470;2023-09-18T07:25:30;4.43;;;2.00;;
20637;SDS011;10478;49.004;8.470;2023-09-18T07:27:55;5.78;;;2.08;;
20637;SDS011;10478;49.004;8.470;2023-09-18T07:30:20;6.03;;;2.05;;
20637;SDS011;10478;49.004;8.470;2023-09-18T07:32:47;3.42;;;1.58;;
20637;SDS011;10478;49.004;8.470;2023-09-18T07:35:12;7.75;;;2.15;;
20637;SDS011;10478;49.004;8.470;2023-09-18T07:37:40;6.03;;;2.00;;
20637;SDS011;10478;49.004;8.470;2023-09-18T07:40:06;8.68;;;2.08;;
20637;SDS011;10478;49.004;8.470;2023-09-18T07:42:32;17.15;;;7.03;;
20637;SDS011;10478;49.004;8.470;2023-09-18T07:44:58;10.68;;;3.40;;
20637;SDS011;10478;49.004;8.470;2023-09-18T07:47:23;7.60;;;2.33;;
20637;SDS011;10478;49.004;8.470;2023-09-18T07:49:49;12.38;;;2.70;;
20637;SDS011;10478;49.004;8.470;2023-09-18T07:52:15;8.50;;;2.13;;
20637;SDS011;10478;49.004;8.470;2023-09-18T07:54:40;6.70;;;1.77;;
20637;SDS011;10478;49.004;8.470;2023-09-18T07:57:06;11.95;;;2.30;;
20637;SDS011;10478;49.004;8.470;2023-09-18T07:59:34;3.85;;;1.45;;
20637;SDS011;10478;49.004;8.470;2023-09-18T08:01:59;9.90;;;1.52;;
20637;SDS011;10478;49.004;8.470;2023-09-18T08:04:25;7.80;;;1.67;;
20637;SDS011;10478;49.004;8.470;2023-09-18T08:06:50;5.10;;;1.23;;
20637;SDS011;10478;49.004;8.470;2023-09-18T08:09:15;5.72;;;1.55;;
20637;SDS011;10478;49.004;8.470;2023-09-18T08:11:42;5.70;;;1.65;;
20637;SDS011;10478;49.004;8.470;2023-09-18T08:14:08;3.47;;;0.90;;
20637;SDS011;10478;49.004;8.470;2023-09-18T08:16:33;3.13;;;1.00;;
20637;SDS011;10478;49.004;8.470;2023-09-18T08:19:00;2.83;;;0.88;;
20637;SDS011;10478;49.004;8.470;2023-09-18T08:21:26;3.35;;;0.98;;
20637;SDS011;10478;49.004;8.470;2023-09-18T08:23:54;2.67;;;0.90;;
20637;SDS011;10478;49.004;8.470;2023-09-18T08:26:19;5.45;;;0.80;;
20637;SDS011;10478;49.004;8.470;2023-09-18T08:28:44;2.13;;;0.90;;
20637;SDS011;10478;49.004;8.470;2023-09-18T08:31:10;2.50;;;0.60;;
20637;SDS011;10478;49.004;8.470;2023-09-18T08:33:35;1.75;;;0.82;;
20637;SDS011;10478;49.004;8.470;2023-09-18T08:36:01;5.05;;;1.17;;
20637;SDS011;10478;49.004;8.470;2023-09-18T08:38:26;4.82;;;1.27;;
20637;SDS011;10478;49.004;8.470;2023-09-18T08:40:53;5.13;;;1.08;;
20637;SDS011;10478;49.004;8.470;2023-09-18T08:43:19;4.88;;;0.88;;
20637;SDS011;10478;49.004;8.470;2023-09-18T08:45:51;5.53;;;0.65;;
20637;SDS011;10478;49.004;8.470;2023-09-18T08:48:18;2.28;;;0.95;;
20637;SDS011;10478;49.004;8.470;2023-09-18T08:50:45;1.50;;;0.82;;
20637;SDS011;10478;49.004;8.470;2023-09-18T08:53:10;1.60;;;0.75;;
20637;SDS011;10478;49.004;8.470;2023-09-18T08:55:36;2.47;;;0.73;;
20637;SDS011;10478;49.004;8.470;2023-09-18T08:58:01;3.63;;;1.20;;
20637;SDS011;10478;49.004;8.470;2023-09-18T09:00:26;3.20;;;0.93;;
20637;SDS011;10478;49.004;8.470;2023-09-18T09:02:52;2.53;;;0.95;;
20637;SDS011;10478;49.004;8.470;2023-09-18T09:05:19;5.45;;;0.93;;
20637;SDS011;10478;49.004;8.470;2023-09-18T09:07:45;4.55;;;0.98;;
20637;SDS011;10478;49.004;8.470;2023-09-18T09:10:11;2.72;;;0.82;;
20637;SDS011;10478;49.004;8.470;2023-09-18T09:12:49;3.88;;;1.27;;
20637;SDS011;10478;49.004;8.470;2023-09-18T09:15:18;2.00;;;1.10;;
20637;SDS011;10478;49.004;8.470;2023-09-18T09:17:44;2.92;;;1.10;;
20637;SDS011;10478;49.004;8.470;2023-09-18T09:20:10;4.75;;;1.27;;
20637;SDS011;10478;49.004;8.470;2023-09-18T09:22:39;3.05;;;1.00;;
20637;SDS011;10478;49.004;8.470;2023-09-18T09:25:22;2.03;;;0.80;;
20637;SDS011;10478;49.004;8.470;2023-09-18T09:27:51;4.43;;;0.75;;
20637;SDS011;10478;49.004;8.470;2023-09-18T09:30:18;2.10;;;1.05;;
20637;SDS011;10478;49.004;8.470;2023-09-18T09:32:47;2.60;;;0.75;;
20637;SDS011;10478;49.004;8.470;2023-09-18T09:35:18;2.65;;;0.70;;
20637;SDS011;10478;49.004;8.470;2023-09-18T09:37:56;2.80;;;1.10;;
20637;SDS011;10478;49.004;8.470;2023-09-18T09:40:22;3.63;;;0.85;;
20637;SDS011;10478;49.004;8.470;2023-09-18T09:42:50;2.88;;;1.17;;
20637;SDS011;10478;49.004;8.470;2023-09-18T09:45:17;2.35;;;0.73;;
20637;SDS011;10478;49.004;8.470;2023-09-18T09:47:42;4.10;;;0.80;;
20637;SDS011;10478;49.004;8.470;2023-09-18T09:50:09;2.60;;;0.90;;
20637;SDS011;10478;49.004;8.470;2023-09-18T09:52:48;4.28;;;1.00;;
20637;SDS011;10478;49.004;8.470;2023-09-18T09:55:22;2.47;;;1.05;;
20637;SDS011;10478;49.004;8.470;2023-09-18T09:57:58;3.38;;;1.00;;
20637;SDS011;10478;49.004;8.470;2023-09-18T10:00:25;2.38;;;0.90;;
20637;SDS011;10478;49.004;8.470;2023-09-18T10:03:01;2.88;;;0.95;;
20637;SDS011;10478;49.004;8.470;2023-09-18T10:05:29;0.95;;;0.45;;
20637;SDS011;10478;49.004;8.470;2023-09-18T10:07:59;6.55;;;0.98;;
20637;SDS011;10478;49.004;8.470;2023-09-18T10:10:45;1.83;;;0.90;;
20637;SDS011;10478;49.004;8.470;2023-09-18T10:13:16;3.22;;;0.77;;
20637;SDS011;10478;49.004;8.470;2023-09-18T10:15:44;2.92;;;0.75;;
20637;SDS011;10478;49.004;8.470;2023-09-18T10:18:17;4.18;;;1.08;;
20637;SDS011;10478;49.004;8.470;2023-09-18T10:20:47;4.68;;;1.05;;
20637;SDS011;10478;49.004;8.470;2023-09-18T10:23:26;1.80;;;0.50;;
20637;SDS011;10478;49.004;8.470;2023-09-18T10:26:15;2.75;;;0.90;;
20637;SDS011;10478;49.004;8.470;2023-09-18T10:28:45;3.97;;;0.70;;
20637;SDS011;10478;49.004;8.470;2023-09-18T10:31:11;3.90;;;0.88;;
20637;SDS011;10478;49.004;8.470;2023-09-18T10:33:37;3.13;;;0.93;;
20637;SDS011;10478;49.004;8.470;2023-09-18T10:36:03;2.45;;;0.70;;
20637;SDS011;10478;49.004;8.470;2023-09-18T10:38:29;2.50;;;0.80;;
20637;SDS011;10478;49.004;8.470;2023-09-18T10:40:56;3.67;;;1.02;;
20637;SDS011;10478;49.004;8.470;2023-09-18T10:43:22;2.00;;;1.13;;
20637;SDS011;10478;49.004;8.470;2023-09-18T10:45:47;1.95;;;0.82;;
20637;SDS011;10478;49.004;8.470;2023-09-18T10:48:14;4.32;;;0.55;;
20637;SDS011;10478;49.004;8.470;2023-09-18T10:50:41;6.65;;;0.70;;
20637;SDS011;10478;49.004;8.470;2023-09-18T10:53:08;1.05;;;0.60;;
20637;SDS011;10478;49.004;8.470;2023-09-18T10:55:33;3.40;;;0.65;;
20637;SDS011;10478;49.004;8.470;2023-09-18T10:57:59;1.13;;;0.47;;
20637;SDS011;10478;49.004;8.470;2023-09-18T11:00:25;2.15;;;0.80;;
20637;SDS011;10478;49.004;8.470;2023-09-18T11:02:52;2.38;;;0.85;;
20637;SDS011;10478;49.004;8.470;2023-09-18T11:05:31;1.15;;;0.50;;
20637;SDS011;10478;49.004;8.470;2023-09-18T11:13:46;2.28;;;1.17;;
20637;SDS011;10478;49.004;8.470;2023-09-18T11:16:17;1.40;;;0.60;;
20637;SDS011;10478;49.004;8.470;2023-09-18T11:21:30;2.83;;;0.63;;
20637;SDS011;10478;49.004;8.470;2023-09-18T11:24:00;1.63;;;0.50;;
20637;SDS011;10478;49.004;8.470;2023-09-18T11:26:32;1.90;;;0.70;;
20637;SDS011;10478;49.004;8.470;2023-09-18T11:29:05;3.45;;;0.88;;
20637;SDS011;10478;49.004;8.470;2023-09-18T11:31:44;1.80;;;0.65;;
20637;SDS011;10478;49.004;8.470;2023-09-18T11:36:47;1.88;;;0.65;;
20637;SDS011;10478;49.004;8.470;2023-09-18T11:39:12;2.80;;;0.73;;
20637;SDS011;10478;49.004;8.470;2023-09-18T11:41:38;1.65;;;0.57;;
20637;SDS011;10478;49.004;8.470;2023-09-18T11:46:37;2.53;;;1.05;;
20637;SDS011;10478;49.004;8.470;2023-09-18T11:49:04;1.85;;;0.63;;
20637;SDS011;10478;49.004;8.470;2023-09-18T11:51:32;2.83;;;0.52;;
20637;SDS011;10478;49.004;8.470;2023-09-18T11:53:57;3.63;;;0.50;;
20637;SDS011;10478;49.004;8.470;2023-09-18T11:56:22;2.42;;;1.35;;
20637;SDS011;10478;49.004;8.470;2023-09-18T11:58:48;1.80;;;0.50;;
20637;SDS011;10478;49.004;8.470;2023-09-18T12:01:15;1.85;;;0.60;;
20637;SDS011;10478;49.004;8.470;2023-09-18T12:03:41;3.13;;;0.55;;
20637;SDS011;10478;49.004;8.470;2023-09-18T12:06:06;2.55;;;0.50;;
20637;SDS011;10478;49.004;8.470;2023-09-18T12:08:34;3.58;;;0.70;;
20637;SDS011;10478;49.004;8.470;2023-09-18T12:11:00;1.73;;;0.65;;
20637;SDS011;10478;49.004;8.470;2023-09-18T12:13:30;2.55;;;0.68;;
20637;SDS011;10478;49.004;8.470;2023-09-18T12:15:59;4.57;;;0.60;;
20637;SDS011;10478;49.004;8.470;2023-09-18T12:18:26;1.52;;;0.77;;
20637;SDS011;10478;49.004;8.470;2023-09-18T12:20:54;2.45;;;0.50;;
20637;SDS011;10478;49.004;8.470;2023-09-18T12:23:20;3.78;;;0.95;;
20637;SDS011;10478;49.004;8.470;2023-09-18T12:25:47;1.05;;;0.68;;
20637;SDS011;10478;49.004;8.470;2023-09-18T12:28:13;1.77;;;0.82;;
20637;SDS011;10478;49.004;8.470;2023-09-18T12:30:40;1.17;;;0.60;;
20637;SDS011;10478;49.004;8.470;2023-09-18T12:33:05;3.55;;;0.95;;
20637;SDS011;10478;49.004;8.470;2023-09-18T12:35:31;1.30;;;0.63;;
20637;SDS011;10478;49.004;8.470;2023-09-18T12:37:59;2.03;;;0.82;;
20637;SDS011;10478;49.004;8.470;2023-09-18T12:40:29;1.02;;;0.35;;
20637;SDS011;10478;49.004;8.470;2023-09-18T12:42:58;1.02;;;0.40;;
20637;SDS011;10478;49.004;8.470;2023-09-18T12:45:24;0.63;;;0.32;;
20637;SDS011;10478;49.004;8.470;2023-09-18T12:47:50;1.38;;;0.50;;
20637;SDS011;10478;49.004;8.470;2023-09-18T12:50:17;1.38;;;0.85;;
20637;SDS011;10478;49.004;8.470;2023-09-18T12:52:42;2.28;;;0.93;;
20637;SDS011;10478;49.004;8.470;2023-09-18T12:55:08;4.43;;;0.65;;
20637;SDS011;10478;49.004;8.470;2023-09-18T12:57:33;2.35;;;0.60;;
20637;SDS011;10478;49.004;8.470;2023-09-18T12:59:59;1.20;;;0.60;;
20637;SDS011;10478;49.004;8.470;2023-09-18T13:02:24;1.60;;;0.55;;
20637;SDS011;10478;49.004;8.470;2023-09-18T13:04:53;2.58;;;0.73;;
20637;SDS011;10478;49.004;8.470;2023-09-18T13:07:20;1.25;;;0.40;;
20637;SDS011;10478;49.004;8.470;2023-09-18T13:10:02;1.23;;;0.40;;
20637;SDS011;10478;49.004;8.470;2023-09-18T13:12:43;2.35;;;0.88;;
20637;SDS011;10478;49.004;8.470;2023-09-18T13:15:12;2.17;;;0.77;;
20637;SDS011;10478;49.004;8.470;2023-09-18T13:17:46;1.52;;;0.50;;
20637;SDS011;10478;49.004;8.470;2023-09-18T13:20:14;1.20;;;0.47;;
20637;SDS011;10478;49.004;8.470;2023-09-18T13:22:40;1.85;;;0.85;;
20637;SDS011;10478;49.004;8.470;2023-09-18T13:25:09;1.67;;;0.63;;
20637;SDS011;10478;49.004;8.470;2023-09-18T13:27:38;2.90;;;0.52;;
20637;SDS011;10478;49.004;8.470;2023-09-18T13:30:08;1.63;;;0.57;;
20637;SDS011;10478;49.004;8.470;2023-09-18T13:32:34;2.15;;;0.65;;
20637;SDS011;10478;49.004;8.470;2023-09-18T13:35:01;1.63;;;0.70;;
20637;SDS011;10478;49.004;8.470;2023-09-18T13:37:26;1.75;;;0.70;;
20637;SDS011;10478;49.004;8.470;2023-09-18T13:39:54;1.50;;;0.70;;
20637;SDS011;10478;49.004;8.470;2023-09-18T13:42:19;2.55;;;1.27;;
20637;SDS011;10478;49.004;8.470;2023-09-18T13:44:44;1.30;;;0.80;;
20637;SDS011;10478;49.004;8.470;2023-09-18T13:47:11;2.13;;;0.60;;
20637;SDS011;10478;49.004;8.470;2023-09-18T13:49:37;3.13;;;0.90;;
20637;SDS011;10478;49.004;8.470;2023-09-18T13:52:02;4.18;;;1.10;;
20637;SDS011;10478;49.004;8.470;2023-09-18T13:54:28;1.92;;;0.57;;
20637;SDS011;10478;49.004;8.470;2023-09-18T13:56:54;1.58;;;0.57;;
20637;SDS011;10478;49.004;8.470;2023-09-18T13:59:20;2.25;;;0.63;;
20637;SDS011;10478;49.004;8.470;2023-09-18T14:01:45;1.85;;;0.70;;
20637;SDS011;10478;49.004;8.470;2023-09-18T14:04:11;3.70;;;0.77;;
20637;SDS011;10478;49.004;8.470;2023-09-18T14:06:36;3.17;;;0.90;;
20637;SDS011;10478;49.004;8.470;2023-09-18T14:09:03;0.85;;;0.52;;
20637;SDS011;10478;49.004;8.470;2023-09-18T14:11:30;3.58;;;0.60;;
20637;SDS011;10478;49.004;8.470;2023-09-18T14:13:56;2.47;;;0.40;;
20637;SDS011;10478;49.004;8.470;2023-09-18T14:16:21;1.88;;;0.60;;
20637;SDS011;10478;49.004;8.470;2023-09-18T14:18:46;2.50;;;0.93;;
20637;SDS011;10478;49.004;8.470;2023-09-18T14:21:12;3.95;;;0.70;;
20637;SDS011;10478;49.004;8.470;2023-09-18T14:23:37;1.38;;;0.70;;
20637;SDS011;10478;49.004;8.470;2023-09-18T14:26:02;2.72;;;0.70;;
20637;SDS011;10478;49.004;8.470;2023-09-18T14:28:28;2.42;;;0.50;;
20637;SDS011;10478;49.004;8.470;2023-09-18T14:30:53;1.40;;;0.75;;
20637;SDS011;10478;49.004;8.470;2023-09-18T14:33:19;3.05;;;0.50;;
20637;SDS011;10478;49.004;8.470;2023-09-18T14:35:44;1.60;;;0.60;;
20637;SDS011;10478;49.004;8.470;2023-09-18T14:38:09;3.97;;;0.88;;
20637;SDS011;10478;49.004;8.470;2023-09-18T14:40:34;2.92;;;0.60;;
20637;SDS011;10478;49.004;8.470;2023-09-18T14:43:00;3.72;;;0.60;;
20637;SDS011;10478;49.004;8.470;2023-09-18T14:45:25;3.90;;;1.23;;
20637;SDS011;10478;49.004;8.470;2023-09-18T14:47:51;1.50;;;0.68;;
20637;SDS011;10478;49.004;8.470;2023-09-18T14:50:16;0.85;;;0.43;;
20637;SDS011;10478;49.004;8.470;2023-09-18T14:52:42;1.48;;;0.60;;
20637;SDS011;10478;49.004;8.470;2023-09-18T14:55:07;0.90;;;0.60;;
20637;SDS011;10478;49.004;8.470;2023-09-18T14:57:32;2.88;;;0.75;;
20637;SDS011;10478;49.004;8.470;2023-09-18T14:59:58;2.10;;;0.65;;
20637;SDS011;10478;49.004;8.470;2023-09-18T15:02:23;1.52;;;0.65;;